sensor_id;sensor_type;location;lat;lon;timestamp;temperature;humidity
47546;DHT22;50104;52.002;4.688;2023-03-19T00:02:10;12.60;81.40
47546;DHT22;50104;52.002;4.688;2023-03-19T00:07:11;12.60;81.60
47546;DHT22;50104;52.002;4.688;2023-03-19T00:12:12;12.60;81.80
47546;DHT22;50104;52.002;4.688;2023-03-19T00:17:13;12.50;81.70
47546;DHT22;50104;52.002;4.688;2023-03-19T00:22:14;12.50;81.70
47546;DHT22;50104;52.002;4.688;2023-03-19T00:27:15;12.50;82.00
47546;DHT22;50104;52.002;4.688;2023-03-19T00:32:16;12.50;82.10
47546;DHT22;50104;52.002;4.688;2023-03-19T00:37:17;12.40;82.20
47546;DHT22;50104;52.002;4.688;2023-03-19T00:42:18;12.40;82.00
47546;DHT22;50104;52.002;4.688;2023-03-19T00:47:19;12.40;82.00
47546;DHT22;50104;52.002;4.688;2023-03-19T00:52:20;12.30;82.00
47546;DHT22;50104;52.002;4.688;2023-03-19T00:57:21;12.30;82.10
47546;DHT22;50104;52.002;4.688;2023-03-19T01:02:22;12.20;82.20
47546;DHT22;50104;52.002;4.688;2023-03-19T01:07:26;12.10;82.00
47546;DHT22;50104;52.002;4.688;2023-03-19T01:12:27;12.10;82.20
47546;DHT22;50104;52.002;4.688;2023-03-19T01:17:27;12.00;82.00
47546;DHT22;50104;52.002;4.688;2023-03-19T01:22:29;11.90;81.90
47546;DHT22;50104;52.002;4.688;2023-03-19T01:27:29;11.80;82.30
47546;DHT22;50104;52.002;4.688;2023-03-19T01:32:30;11.80;82.50
47546;DHT22;50104;52.002;4.688;2023-03-19T01:37:33;11.70;82.70
47546;DHT22;50104;52.002;4.688;2023-03-19T01:42:33;11.70;83.00
47546;DHT22;50104;52.002;4.688;2023-03-19T01:47:54;11.70;83.30
47546;DHT22;50104;52.002;4.688;2023-03-19T01:52:55;11.60;83.20
47546;DHT22;50104;52.002;4.688;2023-03-19T01:57:56;11.60;83.00
47546;DHT22;50104;52.002;4.688;2023-03-19T02:03:00;11.60;82.70
47546;DHT22;50104;52.002;4.688;2023-03-19T02:08:05;11.50;82.50
47546;DHT22;50104;52.002;4.688;2023-03-19T02:13:07;11.40;82.40
47546;DHT22;50104;52.002;4.688;2023-03-19T02:18:08;11.40;82.40
47546;DHT22;50104;52.002;4.688;2023-03-19T02:23:33;11.30;82.30
47546;DHT22;50104;52.002;4.688;2023-03-19T02:28:38;11.20;82.40
47546;DHT22;50104;52.002;4.688;2023-03-19T02:33:40;11.20;82.60
47546;DHT22;50104;52.002;4.688;2023-03-19T02:38:42;11.10;83.20
47546;DHT22;50104;52.002;4.688;2023-03-19T02:43:45;11.10;83.40
47546;DHT22;50104;52.002;4.688;2023-03-19T02:48:46;11.10;83.80
47546;DHT22;50104;52.002;4.688;2023-03-19T02:53:47;11.10;83.90
47546;DHT22;50104;52.002;4.688;2023-03-19T02:58:48;11.10;83.90
47546;DHT22;50104;52.002;4.688;2023-03-19T03:03:49;11.10;84.00
47546;DHT22;50104;52.002;4.688;2023-03-19T03:08:50;11.10;84.20
47546;DHT22;50104;52.002;4.688;2023-03-19T03:13:51;11.10;84.00
47546;DHT22;50104;52.002;4.688;2023-03-19T03:18:52;11.00;83.90
47546;DHT22;50104;52.002;4.688;2023-03-19T03:23:54;11.00;83.60
47546;DHT22;50104;52.002;4.688;2023-03-19T03:28:55;11.00;83.90
47546;DHT22;50104;52.002;4.688;2023-03-19T03:33:56;10.90;83.90
47546;DHT22;50104;52.002;4.688;2023-03-19T03:38:57;10.90;84.00
47546;DHT22;50104;52.002;4.688;2023-03-19T03:43:58;10.80;84.00
47546;DHT22;50104;52.002;4.688;2023-03-19T03:48:59;10.80;83.90
47546;DHT22;50104;52.002;4.688;2023-03-19T03:54:00;10.80;84.00
47546;DHT22;50104;52.002;4.688;2023-03-19T03:59:01;10.80;84.00
47546;DHT22;50104;52.002;4.688;2023-03-19T04:04:01;10.70;84.40
47546;DHT22;50104;52.002;4.688;2023-03-19T04:09:03;10.70;84.10
47546;DHT22;50104;52.002;4.688;2023-03-19T04:14:04;10.70;84.10
47546;DHT22;50104;52.002;4.688;2023-03-19T04:19:07;10.60;84.20
47546;DHT22;50104;52.002;4.688;2023-03-19T04:24:08;10.60;84.30
47546;DHT22;50104;52.002;4.688;2023-03-19T04:29:13;10.60;84.30
47546;DHT22;50104;52.002;4.688;2023-03-19T04:34:13;10.60;84.10
47546;DHT22;50104;52.002;4.688;2023-03-19T04:39:14;10.60;84.30
47546;DHT22;50104;52.002;4.688;2023-03-19T04:44:15;10.60;84.20
47546;DHT22;50104;52.002;4.688;2023-03-19T04:49:19;10.60;84.40
47546;DHT22;50104;52.002;4.688;2023-03-19T04:54:23;10.60;84.80
47546;DHT22;50104;52.002;4.688;2023-03-19T04:59:41;10.50;84.80
47546;DHT22;50104;52.002;4.688;2023-03-19T05:04:42;10.50;84.80
47546;DHT22;50104;52.002;4.688;2023-03-19T05:09:43;10.50;84.80
47546;DHT22;50104;52.002;4.688;2023-03-19T05:14:45;10.50;84.80
47546;DHT22;50104;52.002;4.688;2023-03-19T05:19:46;10.50;84.80
47546;DHT22;50104;52.002;4.688;2023-03-19T05:24:47;10.50;84.70
47546;DHT22;50104;52.002;4.688;2023-03-19T05:29:50;10.50;84.50
47546;DHT22;50104;52.002;4.688;2023-03-19T05:34:51;10.50;84.80
47546;DHT22;50104;52.002;4.688;2023-03-19T05:39:52;10.50;85.00
47546;DHT22;50104;52.002;4.688;2023-03-19T05:44:53;10.50;84.90
47546;DHT22;50104;52.002;4.688;2023-03-19T05:49:54;10.50;84.80
47546;DHT22;50104;52.002;4.688;2023-03-19T05:54:56;10.50;84.70
47546;DHT22;50104;52.002;4.688;2023-03-19T05:59:57;10.50;84.70
47546;DHT22;50104;52.002;4.688;2023-03-19T06:04:57;10.50;84.90
47546;DHT22;50104;52.002;4.688;2023-03-19T06:09:58;10.40;84.90
47546;DHT22;50104;52.002;4.688;2023-03-19T06:14:59;10.40;85.20
47546;DHT22;50104;52.002;4.688;2023-03-19T06:20:00;10.40;85.00
47546;DHT22;50104;52.002;4.688;2023-03-19T06:25:01;10.40;85.20
47546;DHT22;50104;52.002;4.688;2023-03-19T06:30:02;10.40;85.20
47546;DHT22;50104;52.002;4.688;2023-03-19T06:35:04;10.40;85.10
47546;DHT22;50104;52.002;4.688;2023-03-19T06:40:06;10.40;85.30
47546;DHT22;50104;52.002;4.688;2023-03-19T06:45:07;10.40;85.30
47546;DHT22;50104;52.002;4.688;2023-03-19T06:50:10;10.40;85.50
47546;DHT22;50104;52.002;4.688;2023-03-19T06:55:11;10.40;85.40
47546;DHT22;50104;52.002;4.688;2023-03-19T07:00:12;10.40;85.40
47546;DHT22;50104;52.002;4.688;2023-03-19T07:05:14;10.40;85.50
47546;DHT22;50104;52.002;4.688;2023-03-19T07:10:19;10.40;85.50
47546;DHT22;50104;52.002;4.688;2023-03-19T07:15:20;10.50;85.40
47546;DHT22;50104;52.002;4.688;2023-03-19T07:20:22;10.50;85.10
47546;DHT22;50104;52.002;4.688;2023-03-19T07:25:23;10.50;85.30
47546;DHT22;50104;52.002;4.688;2023-03-19T07:30:24;10.50;85.10
47546;DHT22;50104;52.002;4.688;2023-03-19T07:35:25;10.60;85.00
47546;DHT22;50104;52.002;4.688;2023-03-19T07:40:26;10.60;84.90
47546;DHT22;50104;52.002;4.688;2023-03-19T07:45:26;10.60;85.10
47546;DHT22;50104;52.002;4.688;2023-03-19T07:50:31;10.70;84.80
47546;DHT22;50104;52.002;4.688;2023-03-19T07:55:32;10.70;85.30
47546;DHT22;50104;52.002;4.688;2023-03-19T08:00:33;10.80;85.30
47546;DHT22;50104;52.002;4.688;2023-03-19T08:05:33;10.80;85.30
47546;DHT22;50104;52.002;4.688;2023-03-19T08:10:37;10.90;85.20
47546;DHT22;50104;52.002;4.688;2023-03-19T08:15:38;10.90;85.20
47546;DHT22;50104;52.002;4.688;2023-03-19T08:20:39;11.00;85.00
47546;DHT22;50104;52.002;4.688;2023-03-19T08:25:40;11.00;85.00
47546;DHT22;50104;52.002;4.688;2023-03-19T08:30:41;11.10;84.90
47546;DHT22;50104;52.002;4.688;2023-03-19T08:35:42;11.10;84.60
47546;DHT22;50104;52.002;4.688;2023-03-19T08:40:43;11.20;84.50
47546;DHT22;50104;52.002;4.688;2023-03-19T08:45:44;11.20;84.40
47546;DHT22;50104;52.002;4.688;2023-03-19T08:50:45;11.20;84.50
47546;DHT22;50104;52.002;4.688;2023-03-19T08:55:53;11.20;84.60
47546;DHT22;50104;52.002;4.688;2023-03-19T09:01:08;11.30;84.70
47546;DHT22;50104;52.002;4.688;2023-03-19T09:06:11;11.30;84.80
47546;DHT22;50104;52.002;4.688;2023-03-19T09:11:13;11.30;84.60
47546;DHT22;50104;52.002;4.688;2023-03-19T09:16:16;11.40;84.70
47546;DHT22;50104;52.002;4.688;2023-03-19T09:21:17;11.40;84.70
47546;DHT22;50104;52.002;4.688;2023-03-19T09:26:18;11.50;84.70
47546;DHT22;50104;52.002;4.688;2023-03-19T09:31:21;11.50;83.90
47546;DHT22;50104;52.002;4.688;2023-03-19T09:36:22;11.60;84.60
47546;DHT22;50104;52.002;4.688;2023-03-19T09:47:11;11.60;84.50
47546;DHT22;50104;52.002;4.688;2023-03-19T09:57:56;11.80;84.70
47546;DHT22;50104;52.002;4.688;2023-03-19T10:19:43;12.00;84.40
47546;DHT22;50104;52.002;4.688;2023-03-19T10:24:47;12.10;84.40
47546;DHT22;50104;52.002;4.688;2023-03-19T10:29:49;12.10;84.10
47546;DHT22;50104;52.002;4.688;2023-03-19T10:34:52;12.10;83.90
47546;DHT22;50104;52.002;4.688;2023-03-19T10:39:58;12.20;83.80
47546;DHT22;50104;52.002;4.688;2023-03-19T10:45:33;12.20;83.70
47546;DHT22;50104;52.002;4.688;2023-03-19T10:50:49;12.20;83.80
47546;DHT22;50104;52.002;4.688;2023-03-19T10:55:53;12.20;83.90
47546;DHT22;50104;52.002;4.688;2023-03-19T11:01:08;12.30;83.80
47546;DHT22;50104;52.002;4.688;2023-03-19T11:06:37;12.30;83.60
47546;DHT22;50104;52.002;4.688;2023-03-19T11:11:42;12.30;83.40
47546;DHT22;50104;52.002;4.688;2023-03-19T11:16:55;12.30;83.50
47546;DHT22;50104;52.002;4.688;2023-03-19T11:27:31;12.40;83.30
47546;DHT22;50104;52.002;4.688;2023-03-19T11:37:59;12.40;83.90
47546;DHT22;50104;52.002;4.688;2023-03-19T11:54:22;12.70;84.60
47546;DHT22;50104;52.002;4.688;2023-03-19T11:59:59;12.80;84.60
47546;DHT22;50104;52.002;4.688;2023-03-19T12:05:17;12.90;85.10
47546;DHT22;50104;52.002;4.688;2023-03-19T12:10:33;13.10;84.90
47546;DHT22;50104;52.002;4.688;2023-03-19T12:37:00;13.80;84.10
47546;DHT22;50104;52.002;4.688;2023-03-19T12:42:04;13.90;83.70
47546;DHT22;50104;52.002;4.688;2023-03-19T12:47:24;14.00;83.90
47546;DHT22;50104;52.002;4.688;2023-03-19T12:52:38;14.10;84.20
47546;DHT22;50104;52.002;4.688;2023-03-19T12:57:59;14.30;84.00
47546;DHT22;50104;52.002;4.688;2023-03-19T13:03:49;14.50;83.80
47546;DHT22;50104;52.002;4.688;2023-03-19T13:19:53;15.00;82.50
47546;DHT22;50104;52.002;4.688;2023-03-19T13:24:57;15.10;82.30
47546;DHT22;50104;52.002;4.688;2023-03-19T13:35:26;15.30;81.00
47546;DHT22;50104;52.002;4.688;2023-03-19T13:40:40;15.30;80.90
47546;DHT22;50104;52.002;4.688;2023-03-19T13:45:42;15.30;80.50
47546;DHT22;50104;52.002;4.688;2023-03-19T13:50:55;15.30;80.10
47546;DHT22;50104;52.002;4.688;2023-03-19T13:56:03;15.30;79.60
47546;DHT22;50104;52.002;4.688;2023-03-19T14:01:10;15.20;79.60
47546;DHT22;50104;52.002;4.688;2023-03-19T14:11:36;15.10;79.10
47546;DHT22;50104;52.002;4.688;2023-03-19T14:16:41;15.00;79.00
47546;DHT22;50104;52.002;4.688;2023-03-19T14:22:05;15.00;78.90
47546;DHT22;50104;52.002;4.688;2023-03-19T14:27:21;14.90;78.90
47546;DHT22;50104;52.002;4.688;2023-03-19T14:32:35;14.80;79.10
47546;DHT22;50104;52.002;4.688;2023-03-19T14:37:45;14.70;79.10
47546;DHT22;50104;52.002;4.688;2023-03-19T14:53:33;14.50;79.30
47546;DHT22;50104;52.002;4.688;2023-03-19T14:58:56;14.40;79.20
47546;DHT22;50104;52.002;4.688;2023-03-19T15:04:07;14.30;79.10
47546;DHT22;50104;52.002;4.688;2023-03-19T15:09:29;14.20;79.40
47546;DHT22;50104;52.002;4.688;2023-03-19T15:19:54;14.00;79.20
47546;DHT22;50104;52.002;4.688;2023-03-19T15:25:24;13.90;79.20
47546;DHT22;50104;52.002;4.688;2023-03-19T15:30:26;13.80;79.50
47546;DHT22;50104;52.002;4.688;2023-03-19T15:35:31;13.70;79.60
47546;DHT22;50104;52.002;4.688;2023-03-19T15:40:34;13.60;79.70
47546;DHT22;50104;52.002;4.688;2023-03-19T15:45:36;13.60;79.90
47546;DHT22;50104;52.002;4.688;2023-03-19T15:50:40;13.50;80.10
47546;DHT22;50104;52.002;4.688;2023-03-19T15:55:42;13.50;80.30
47546;DHT22;50104;52.002;4.688;2023-03-19T16:00:43;13.40;80.40
47546;DHT22;50104;52.002;4.688;2023-03-19T16:05:44;13.40;80.50
47546;DHT22;50104;52.002;4.688;2023-03-19T16:10:45;13.40;80.80
47546;DHT22;50104;52.002;4.688;2023-03-19T16:21:09;13.40;80.80
47546;DHT22;50104;52.002;4.688;2023-03-19T16:26:29;13.40;80.80
47546;DHT22;50104;52.002;4.688;2023-03-19T16:31:49;13.30;80.80
47546;DHT22;50104;52.002;4.688;2023-03-19T16:36:51;13.30;80.50
47546;DHT22;50104;52.002;4.688;2023-03-19T16:47:13;13.20;80.50
47546;DHT22;50104;52.002;4.688;2023-03-19T16:52:22;13.10;80.60
47546;DHT22;50104;52.002;4.688;2023-03-19T16:57:23;12.90;80.90
47546;DHT22;50104;52.002;4.688;2023-03-19T17:02:24;12.80;81.20
47546;DHT22;50104;52.002;4.688;2023-03-19T17:07:26;12.80;81.20
47546;DHT22;50104;52.002;4.688;2023-03-19T17:12:27;12.70;81.40
47546;DHT22;50104;52.002;4.688;2023-03-19T17:17:28;12.60;81.70
47546;DHT22;50104;52.002;4.688;2023-03-19T17:22:29;12.50;81.90
47546;DHT22;50104;52.002;4.688;2023-03-19T17:27:29;12.40;82.00
47546;DHT22;50104;52.002;4.688;2023-03-19T17:32:31;12.40;82.30
47546;DHT22;50104;52.002;4.688;2023-03-19T17:37:32;12.30;82.30
47546;DHT22;50104;52.002;4.688;2023-03-19T17:42:35;12.20;82.50
47546;DHT22;50104;52.002;4.688;2023-03-19T17:47:37;12.20;82.40
47546;DHT22;50104;52.002;4.688;2023-03-19T17:52:37;12.10;82.40
47546;DHT22;50104;52.002;4.688;2023-03-19T17:57:38;12.10;82.50
47546;DHT22;50104;52.002;4.688;2023-03-19T18:02:39;12.00;82.80
47546;DHT22;50104;52.002;4.688;2023-03-19T18:07:40;12.00;82.80
47546;DHT22;50104;52.002;4.688;2023-03-19T18:12:42;11.90;82.70
47546;DHT22;50104;52.002;4.688;2023-03-19T18:17:47;11.90;82.70
47546;DHT22;50104;52.002;4.688;2023-03-19T18:22:53;11.80;82.80
47546;DHT22;50104;52.002;4.688;2023-03-19T18:27:54;11.80;82.80
47546;DHT22;50104;52.002;4.688;2023-03-19T18:32:57;11.70;82.90
47546;DHT22;50104;52.002;4.688;2023-03-19T18:38:00;11.60;82.90
47546;DHT22;50104;52.002;4.688;2023-03-19T18:43:01;11.50;82.90
47546;DHT22;50104;52.002;4.688;2023-03-19T18:48:05;11.50;82.80
47546;DHT22;50104;52.002;4.688;2023-03-19T18:53:14;11.40;83.00
47546;DHT22;50104;52.002;4.688;2023-03-19T18:58:21;11.30;83.20
47546;DHT22;50104;52.002;4.688;2023-03-19T19:03:27;11.30;83.10
47546;DHT22;50104;52.002;4.688;2023-03-19T19:08:29;11.20;83.10
47546;DHT22;50104;52.002;4.688;2023-03-19T19:13:33;11.20;83.30
47546;DHT22;50104;52.002;4.688;2023-03-19T19:18:41;11.10;83.50
47546;DHT22;50104;52.002;4.688;2023-03-19T19:23:42;11.00;83.40
47546;DHT22;50104;52.002;4.688;2023-03-19T19:28:43;11.00;83.40
47546;DHT22;50104;52.002;4.688;2023-03-19T19:33:44;11.00;83.40
47546;DHT22;50104;52.002;4.688;2023-03-19T19:38:45;10.90;83.40
47546;DHT22;50104;52.002;4.688;2023-03-19T19:43:49;10.90;83.40
47546;DHT22;50104;52.002;4.688;2023-03-19T19:48:53;10.90;83.50
47546;DHT22;50104;52.002;4.688;2023-03-19T19:53:54;10.90;83.50
47546;DHT22;50104;52.002;4.688;2023-03-19T19:58:55;10.80;83.60
47546;DHT22;50104;52.002;4.688;2023-03-19T20:03:56;10.80;83.70
47546;DHT22;50104;52.002;4.688;2023-03-19T20:08:57;10.80;83.90
47546;DHT22;50104;52.002;4.688;2023-03-19T20:13:59;10.70;83.90
47546;DHT22;50104;52.002;4.688;2023-03-19T20:19:00;10.70;84.00
47546;DHT22;50104;52.002;4.688;2023-03-19T20:24:01;10.70;83.90
47546;DHT22;50104;52.002;4.688;2023-03-19T20:29:03;10.60;83.90
47546;DHT22;50104;52.002;4.688;2023-03-19T20:34:04;10.60;83.90
47546;DHT22;50104;52.002;4.688;2023-03-19T20:39:05;10.60;83.90
47546;DHT22;50104;52.002;4.688;2023-03-19T20:44:06;10.50;84.00
47546;DHT22;50104;52.002;4.688;2023-03-19T20:49:12;10.50;84.00
47546;DHT22;50104;52.002;4.688;2023-03-19T20:54:13;10.50;84.20
47546;DHT22;50104;52.002;4.688;2023-03-19T20:59:15;10.40;84.40
47546;DHT22;50104;52.002;4.688;2023-03-19T21:04:17;10.40;84.40
47546;DHT22;50104;52.002;4.688;2023-03-19T21:09:20;10.40;84.50
47546;DHT22;50104;52.002;4.688;2023-03-19T21:14:21;10.30;84.70
47546;DHT22;50104;52.002;4.688;2023-03-19T21:19:26;10.30;84.50
47546;DHT22;50104;52.002;4.688;2023-03-19T21:24:28;10.30;84.50
47546;DHT22;50104;52.002;4.688;2023-03-19T21:29:30;10.20;84.60
47546;DHT22;50104;52.002;4.688;2023-03-19T21:34:32;10.20;84.50
47546;DHT22;50104;52.002;4.688;2023-03-19T21:39:33;10.20;84.40
47546;DHT22;50104;52.002;4.688;2023-03-19T21:44:35;10.20;84.60
47546;DHT22;50104;52.002;4.688;2023-03-19T21:49:39;10.20;84.60
47546;DHT22;50104;52.002;4.688;2023-03-19T21:54:40;10.20;84.60
47546;DHT22;50104;52.002;4.688;2023-03-19T21:59:43;10.10;84.60
47546;DHT22;50104;52.002;4.688;2023-03-19T22:04:44;10.10;84.60
47546;DHT22;50104;52.002;4.688;2023-03-19T22:09:45;10.10;84.60
47546;DHT22;50104;52.002;4.688;2023-03-19T22:14:46;10.10;84.60
47546;DHT22;50104;52.002;4.688;2023-03-19T22:19:47;10.10;84.50
47546;DHT22;50104;52.002;4.688;2023-03-19T22:24:48;10.10;84.60
47546;DHT22;50104;52.002;4.688;2023-03-19T22:29:49;10.10;84.80
47546;DHT22;50104;52.002;4.688;2023-03-19T22:34:50;10.10;84.60
47546;DHT22;50104;52.002;4.688;2023-03-19T22:39:51;10.00;84.70
47546;DHT22;50104;52.002;4.688;2023-03-19T22:44:52;10.00;84.70
47546;DHT22;50104;52.002;4.688;2023-03-19T22:49:54;10.00;84.70
47546;DHT22;50104;52.002;4.688;2023-03-19T22:54:55;10.00;84.80
47546;DHT22;50104;52.002;4.688;2023-03-19T22:59:56;9.90;84.80
47546;DHT22;50104;52.002;4.688;2023-03-19T23:04:58;9.90;84.60
47546;DHT22;50104;52.002;4.688;2023-03-19T23:10:04;9.90;84.70
47546;DHT22;50104;52.002;4.688;2023-03-19T23:15:11;9.90;84.60
47546;DHT22;50104;52.002;4.688;2023-03-19T23:20:17;9.90;84.40
47546;DHT22;50104;52.002;4.688;2023-03-19T23:25:26;9.90;84.40
47546;DHT22;50104;52.002;4.688;2023-03-19T23:30:29;9.90;84.30
47546;DHT22;50104;52.002;4.688;2023-03-19T23:35:31;9.80;84.30
47546;DHT22;50104;52.002;4.688;2023-03-19T23:40:32;9.80;84.40
47546;DHT22;50104;52.002;4.688;2023-03-19T23:45:39;9.80;84.30
47546;DHT22;50104;52.002;4.688;2023-03-19T23:50:42;9.80;84.40
47546;DHT22;50104;52.002;4.688;2023-03-19T23:55:48;9.80;84.30
